createdAt,value
2017-11-03T00:00:12.857Z,0
2017-11-03T00:01:15.232Z,0
2017-11-03T00:02:17.602Z,0
2017-11-03T00:03:19.966Z,0
2017-11-03T00:04:22.337Z,0
2017-11-03T00:05:24.716Z,0
2017-11-03T00:06:27.086Z,0
2017-11-03T00:07:29.464Z,0
2017-11-03T00:08:31.838Z,0
2017-11-03T00:09:34.557Z,0
2017-11-03T00:10:36.936Z,0
2017-11-03T00:11:39.315Z,0
2017-11-03T00:12:41.682Z,0
2017-11-03T00:13:44.417Z,0
2017-11-03T00:14:46.789Z,0
2017-11-03T00:15:49.165Z,0
2017-11-03T00:16:51.536Z,0
2017-11-03T00:17:53.907Z,0
2017-11-03T00:18:56.281Z,0
2017-11-03T00:19:59.003Z,0
2017-11-03T00:21:01.377Z,0
2017-11-03T00:22:03.751Z,0
2017-11-03T00:23:06.129Z,0
2017-11-03T00:24:08.841Z,0
2017-11-03T00:25:11.221Z,0
2017-11-03T00:26:13.945Z,0
2017-11-03T00:27:16.311Z,0
2017-11-03T00:28:18.689Z,0
2017-11-03T00:29:21.055Z,0
2017-11-03T00:30:23.435Z,0
2017-11-03T00:31:25.797Z,0
2017-11-03T00:32:28.170Z,0
2017-11-03T00:33:30.540Z,0
2017-11-03T00:34:33.630Z,0
2017-11-03T00:35:36.371Z,0
2017-11-03T00:36:39.097Z,0
2017-11-03T00:37:41.826Z,0
2017-11-03T00:38:44.189Z,0
2017-11-03T00:39:46.570Z,0
2017-11-03T00:40:48.939Z,0
2017-11-03T00:41:51.309Z,0
2017-11-03T00:42:53.684Z,0
2017-11-03T00:43:56.050Z,0
2017-11-03T00:44:58.428Z,0
2017-11-03T00:46:00.786Z,0
2017-11-03T00:47:03.151Z,0
2017-11-03T00:48:05.910Z,0
2017-11-03T00:49:08.273Z,0
2017-11-03T00:50:10.656Z,0
2017-11-03T00:51:13.019Z,0
2017-11-03T00:52:15.665Z,0
2017-11-03T00:53:18.039Z,0
2017-11-03T00:54:20.415Z,0
2017-11-03T00:55:22.779Z,0
2017-11-03T00:56:25.156Z,0
2017-11-03T00:57:27.539Z,0
2017-11-03T00:58:29.919Z,0
2017-11-03T00:59:32.298Z,0
2017-11-03T01:00:34.664Z,0
2017-11-03T01:01:37.034Z,0
2017-11-03T01:02:39.409Z,0
2017-11-03T01:03:41.776Z,0
2017-11-03T01:04:44.154Z,0
2017-11-03T01:05:46.528Z,0
2017-11-03T01:06:48.903Z,0
2017-11-03T01:07:51.278Z,0
2017-11-03T01:08:53.659Z,0
2017-11-03T01:09:56.016Z,0
2017-11-03T01:10:58.394Z,0
2017-11-03T01:12:00.769Z,0
2017-11-03T01:13:03.141Z,0
2017-11-03T01:14:05.523Z,0
2017-11-03T01:15:07.893Z,0
2017-11-03T01:16:10.261Z,0
2017-11-03T01:17:12.639Z,0
2017-11-03T01:18:15.008Z,0
2017-11-03T01:19:17.396Z,0
2017-11-03T01:20:19.778Z,0
2017-11-03T01:21:22.133Z,0
2017-11-03T01:22:24.876Z,0
2017-11-03T01:23:27.595Z,0
2017-11-03T01:24:29.972Z,0
2017-11-03T01:25:32.344Z,0
2017-11-03T01:26:34.717Z,0
2017-11-03T01:27:37.085Z,0
2017-11-03T01:28:39.468Z,0
2017-11-03T01:29:41.843Z,0
2017-11-03T01:30:44.598Z,0
2017-11-03T01:31:46.973Z,0
2017-11-03T01:32:49.346Z,0
2017-11-03T01:33:51.729Z,0
2017-11-03T01:34:54.101Z,0
2017-11-03T01:35:56.467Z,0
2017-11-03T01:36:59.202Z,0
2017-11-03T01:38:01.581Z,0
2017-11-03T01:39:03.966Z,0
2017-11-03T01:40:06.336Z,0
2017-11-03T01:41:08.709Z,0
2017-11-03T01:42:11.081Z,0
2017-11-03T01:43:13.816Z,0
2017-11-03T01:44:16.187Z,0
2017-11-03T01:45:18.561Z,0
2017-11-03T01:46:20.928Z,0
2017-11-03T01:47:23.301Z,0
2017-11-03T01:48:25.667Z,0
2017-11-03T01:49:28.047Z,0
2017-11-03T01:50:30.416Z,0
2017-11-03T01:51:33.145Z,0
2017-11-03T01:52:35.516Z,0
2017-11-03T01:53:37.893Z,0
2017-11-03T01:54:40.626Z,0
2017-11-03T01:55:42.999Z,0
2017-11-03T01:56:45.724Z,0
2017-11-03T01:57:48.093Z,0
2017-11-03T01:58:50.820Z,0
2017-11-03T01:59:53.199Z,0
2017-11-03T02:00:55.566Z,0
2017-11-03T02:01:58.303Z,0
2017-11-03T02:03:00.722Z,0
2017-11-03T02:04:03.096Z,0
2017-11-03T02:05:05.468Z,0
2017-11-03T02:06:08.192Z,0
2017-11-03T02:07:10.556Z,0
2017-11-03T02:08:12.944Z,0
2017-11-03T02:09:15.647Z,0
2017-11-03T02:10:18.023Z,0
2017-11-03T02:11:20.399Z,0
2017-11-03T02:12:22.767Z,0
2017-11-03T02:13:25.143Z,0
2017-11-03T02:14:27.515Z,0
2017-11-03T02:15:30.235Z,0
2017-11-03T02:16:32.603Z,0
2017-11-03T02:17:34.974Z,0
2017-11-03T02:18:37.361Z,0
2017-11-03T02:19:39.723Z,0
2017-11-03T02:20:42.102Z,0
2017-11-03T02:21:44.474Z,0
2017-11-03T02:22:46.850Z,0
2017-11-03T02:23:49.230Z,0
2017-11-03T02:24:51.611Z,0
2017-11-03T02:25:53.985Z,0
2017-11-03T02:26:56.355Z,0
2017-11-03T02:27:58.731Z,0
2017-11-03T02:29:01.100Z,0
2017-11-03T02:30:03.471Z,0
2017-11-03T02:31:05.845Z,0
2017-11-03T02:32:08.226Z,0
2017-11-03T02:33:10.582Z,0
2017-11-03T02:34:12.959Z,0
2017-11-03T02:35:15.324Z,0
2017-11-03T02:36:17.708Z,0
2017-11-03T02:37:20.083Z,0
2017-11-03T02:38:22.460Z,0
2017-11-03T02:39:24.835Z,0
2017-11-03T02:40:27.213Z,0
2017-11-03T02:41:29.582Z,0
2017-11-03T02:42:31.966Z,0
2017-11-03T02:43:34.336Z,0
2017-11-03T02:44:36.709Z,0
2017-11-03T02:45:39.434Z,0
2017-11-03T02:46:41.807Z,0
2017-11-03T02:47:44.186Z,0
2017-11-03T02:48:46.550Z,0
2017-11-03T02:49:48.939Z,0
2017-11-03T02:50:51.306Z,0
2017-11-03T02:51:53.699Z,0
2017-11-03T02:52:56.051Z,0
2017-11-03T02:53:58.414Z,0
2017-11-03T02:55:00.787Z,0
2017-11-03T02:56:03.179Z,0
2017-11-03T02:57:05.526Z,0
2017-11-03T02:58:07.901Z,0
2017-11-03T02:59:10.279Z,0
2017-11-03T03:00:12.644Z,0
2017-11-03T03:01:15.025Z,0
2017-11-03T03:02:17.396Z,0
2017-11-03T03:03:19.769Z,0
2017-11-03T03:04:22.147Z,0
2017-11-03T03:05:24.520Z,0
2017-11-03T03:06:26.896Z,0
2017-11-03T03:07:29.272Z,0
2017-11-03T03:08:31.631Z,0
2017-11-03T03:09:34.007Z,0
2017-11-03T03:10:36.383Z,0
2017-11-03T03:11:38.747Z,0
2017-11-03T03:12:41.492Z,0
2017-11-03T03:13:43.872Z,0
2017-11-03T03:14:46.252Z,0
2017-11-03T03:15:48.608Z,0
2017-11-03T03:16:50.987Z,0
2017-11-03T03:17:53.358Z,0
2017-11-03T03:18:55.726Z,0
2017-11-03T03:19:58.103Z,0
2017-11-03T03:21:00.471Z,0
2017-11-03T03:22:02.848Z,0
2017-11-03T03:23:05.248Z,0
2017-11-03T03:24:07.622Z,0
2017-11-03T03:25:09.987Z,0
2017-11-03T03:26:12.367Z,0
2017-11-03T03:27:14.745Z,0
2017-11-03T03:28:17.468Z,0
2017-11-03T03:29:19.839Z,0
2017-11-03T03:30:22.214Z,0
2017-11-03T03:31:24.585Z,0
2017-11-03T03:32:26.959Z,0
2017-11-03T03:33:29.325Z,0
2017-11-03T03:34:31.704Z,0
2017-11-03T03:35:34.078Z,0
2017-11-03T03:36:36.450Z,0
2017-11-03T03:37:38.822Z,0
2017-11-03T03:38:41.198Z,0
2017-11-03T03:39:43.570Z,0
2017-11-03T03:40:45.942Z,0
2017-11-03T03:41:48.314Z,0
2017-11-03T03:42:50.681Z,0
2017-11-03T03:43:53.060Z,0
2017-11-03T03:44:55.437Z,0
2017-11-03T03:45:57.802Z,0
2017-11-03T03:47:00.184Z,0
2017-11-03T03:48:02.547Z,0
2017-11-03T03:49:04.937Z,0
2017-11-03T03:50:07.300Z,0
2017-11-03T03:51:09.674Z,0
2017-11-03T03:52:12.051Z,0
2017-11-03T03:53:14.410Z,0
2017-11-03T03:54:17.133Z,0
2017-11-03T03:55:19.507Z,0
2017-11-03T03:56:21.870Z,0
2017-11-03T03:57:24.255Z,0
2017-11-03T03:58:26.965Z,0
2017-11-03T03:59:29.337Z,0
2017-11-03T04:00:32.072Z,0
2017-11-03T04:01:34.447Z,0
2017-11-03T04:02:36.819Z,0
2017-11-03T04:03:39.197Z,0
2017-11-03T04:04:41.565Z,0
2017-11-03T04:05:44.301Z,0
2017-11-03T04:06:46.680Z,0
2017-11-03T04:07:49.037Z,0
2017-11-03T04:08:51.420Z,0
2017-11-03T04:09:53.788Z,0
2017-11-03T04:10:56.161Z,0
2017-11-03T04:11:58.882Z,0
2017-11-03T04:13:01.261Z,0
2017-11-03T04:14:03.626Z,0
2017-11-03T04:15:06.007Z,0
2017-11-03T04:16:08.373Z,0
2017-11-03T04:17:10.746Z,0
2017-11-03T04:18:13.117Z,0
2017-11-03T04:19:15.492Z,0
2017-11-03T04:20:17.858Z,0
2017-11-03T04:21:20.239Z,0
2017-11-03T04:22:22.596Z,0
2017-11-03T04:23:24.969Z,0
2017-11-03T04:24:27.341Z,0
2017-11-03T04:25:29.706Z,0
2017-11-03T04:26:32.084Z,0
2017-11-03T04:27:34.459Z,0
2017-11-03T04:28:36.833Z,0
2017-11-03T04:29:39.215Z,0
2017-11-03T04:30:41.593Z,0
2017-11-03T04:31:43.945Z,0
2017-11-03T04:32:46.680Z,0
2017-11-03T04:33:49.055Z,0
2017-11-03T04:34:51.424Z,0
2017-11-03T04:35:53.794Z,0
2017-11-03T04:36:56.152Z,0
2017-11-03T04:37:58.524Z,0
2017-11-03T04:39:00.905Z,0
2017-11-03T04:40:03.627Z,0
2017-11-03T04:41:05.993Z,0
2017-11-03T04:42:08.360Z,0
2017-11-03T04:43:10.740Z,0
2017-11-03T04:44:13.108Z,0
2017-11-03T04:45:15.816Z,0
2017-11-03T04:46:18.199Z,0
2017-11-03T04:47:20.572Z,0
2017-11-03T04:48:22.937Z,0
2017-11-03T04:49:25.319Z,0
2017-11-03T04:50:27.696Z,0
2017-11-03T04:51:30.069Z,0
2017-11-03T04:52:32.445Z,0
2017-11-03T04:53:34.802Z,0
2017-11-03T04:54:37.169Z,0
2017-11-03T04:55:39.556Z,0
2017-11-03T04:56:41.909Z,0
2017-11-03T04:57:44.296Z,0
2017-11-03T04:58:46.668Z,0
2017-11-03T04:59:49.385Z,0
2017-11-03T05:00:51.757Z,0
2017-11-03T05:01:54.130Z,0
2017-11-03T05:02:56.496Z,0
2017-11-03T05:03:58.880Z,0
2017-11-03T05:05:01.241Z,0
2017-11-03T05:06:03.618Z,0
2017-11-03T05:07:05.999Z,0
2017-11-03T05:08:08.366Z,0
2017-11-03T05:09:10.738Z,0
2017-11-03T05:10:13.117Z,0
2017-11-03T05:11:15.853Z,0
2017-11-03T05:12:18.211Z,0
2017-11-03T05:13:20.584Z,0
2017-11-03T05:14:22.955Z,0
2017-11-03T05:15:25.331Z,0
2017-11-03T05:16:28.050Z,0
2017-11-03T05:17:30.424Z,0
2017-11-03T05:18:32.785Z,0
2017-11-03T05:19:35.525Z,0
2017-11-03T05:20:37.901Z,0
2017-11-03T05:21:40.617Z,0
2017-11-03T05:22:43.340Z,0
2017-11-03T05:23:45.707Z,0
2017-11-03T05:24:48.083Z,0
2017-11-03T05:25:50.451Z,0
2017-11-03T05:26:52.831Z,0
2017-11-03T05:27:55.197Z,0
2017-11-03T05:28:57.581Z,0
2017-11-03T05:29:59.949Z,0
2017-11-03T05:31:02.315Z,0
2017-11-03T05:32:04.687Z,0
2017-11-03T05:33:07.065Z,0
2017-11-03T05:34:09.441Z,0
2017-11-03T05:35:12.163Z,0
2017-11-03T05:36:14.535Z,0
2017-11-03T05:37:17.262Z,0
2017-11-03T05:38:19.634Z,0
2017-11-03T05:39:22.012Z,0
2017-11-03T05:40:24.364Z,0
2017-11-03T05:41:26.738Z,4
2017-11-03T05:42:29.108Z,0
2017-11-03T05:43:31.470Z,0
2017-11-03T05:44:33.844Z,4
2017-11-03T05:45:36.216Z,0
2017-11-03T05:46:38.581Z,4
2017-11-03T05:47:40.960Z,4
2017-11-03T05:48:43.326Z,8
2017-11-03T05:49:45.703Z,8
2017-11-03T05:50:48.074Z,8
2017-11-03T05:51:50.454Z,12
2017-11-03T05:52:52.817Z,12
2017-11-03T05:53:55.190Z,16
2017-11-03T05:54:57.566Z,16
2017-11-03T05:56:00.275Z,20
2017-11-03T05:57:03.004Z,24
2017-11-03T05:58:05.373Z,28
2017-11-03T05:59:07.753Z,32
2017-11-03T06:00:10.476Z,40
2017-11-03T06:01:13.555Z,44
2017-11-03T06:02:15.922Z,52
2017-11-03T06:03:18.300Z,60
2017-11-03T06:04:20.665Z,64
2017-11-03T06:05:23.038Z,76
2017-11-03T06:06:25.413Z,84
2017-11-03T06:07:27.778Z,96
2017-11-03T06:08:30.154Z,108
2017-11-03T06:09:33.234Z,124
2017-11-03T06:10:35.595Z,136
2017-11-03T06:11:37.982Z,152
2017-11-03T06:12:41.088Z,172
2017-11-03T06:13:43.454Z,192
2017-11-03T06:14:45.835Z,208
2017-11-03T06:15:48.205Z,228
2017-11-03T06:16:50.583Z,244
2017-11-03T06:17:52.956Z,256
2017-11-03T06:18:55.315Z,276
2017-11-03T06:19:57.688Z,296
2017-11-03T06:21:00.070Z,316
2017-11-03T06:22:02.444Z,336
2017-11-03T06:23:04.809Z,360
2017-11-03T06:24:07.187Z,380
2017-11-03T06:25:09.566Z,404
2017-11-03T06:26:11.936Z,428
2017-11-03T06:27:14.305Z,464
2017-11-03T06:28:16.671Z,496
2017-11-03T06:29:19.073Z,524
2017-11-03T06:30:21.792Z,548
2017-11-03T06:31:24.165Z,572
2017-11-03T06:32:26.888Z,596
2017-11-03T06:33:29.250Z,612
2017-11-03T06:34:31.618Z,636
2017-11-03T06:35:34.376Z,660
2017-11-03T06:36:36.742Z,696
2017-11-03T06:37:39.108Z,732
2017-11-03T06:38:41.482Z,764
2017-11-03T06:39:43.856Z,792
2017-11-03T06:40:46.228Z,816
2017-11-03T06:41:48.600Z,840
2017-11-03T06:42:50.979Z,864
2017-11-03T06:43:53.355Z,908
2017-11-03T06:44:55.723Z,956
2017-11-03T06:45:58.101Z,988
2017-11-03T06:47:00.465Z,1008
2017-11-03T06:48:02.853Z,1020
2017-11-03T06:49:05.594Z,1068
2017-11-03T06:50:07.963Z,1128
2017-11-03T06:51:10.334Z,1180
2017-11-03T06:52:12.707Z,1236
2017-11-03T06:53:15.431Z,1304
2017-11-03T06:54:17.816Z,1372
2017-11-03T06:55:20.183Z,1444
2017-11-03T06:56:22.557Z,1560
2017-11-03T06:57:24.937Z,1680
2017-11-03T06:58:27.313Z,1792
2017-11-03T06:59:29.674Z,1900
2017-11-03T07:00:32.055Z,1960
2017-11-03T07:01:34.428Z,2028
2017-11-03T07:02:36.810Z,2048
2017-11-03T07:03:39.179Z,2072
2017-11-03T07:04:41.560Z,2188
2017-11-03T07:05:43.924Z,2292
2017-11-03T07:06:46.311Z,2284
2017-11-03T07:07:48.679Z,2308
2017-11-03T07:08:51.047Z,2384
2017-11-03T07:09:53.419Z,2480
2017-11-03T07:10:55.806Z,2568
2017-11-03T07:11:58.174Z,2616
2017-11-03T07:13:00.549Z,2700
2017-11-03T07:14:02.926Z,2800
2017-11-03T07:15:05.301Z,2904
2017-11-03T07:16:07.668Z,3016
2017-11-03T07:17:10.046Z,3092
2017-11-03T07:18:12.767Z,3148
2017-11-03T07:19:15.134Z,3144
2017-11-03T07:20:17.521Z,3112
2017-11-03T07:21:19.889Z,3132
2017-11-03T07:22:22.618Z,3200
2017-11-03T07:23:25.718Z,3268
2017-11-03T07:24:28.098Z,3340
2017-11-03T07:25:30.469Z,3400
2017-11-03T07:26:32.845Z,3452
2017-11-03T07:27:35.217Z,3500
2017-11-03T07:28:37.590Z,3616
2017-11-03T07:29:39.972Z,3864
2017-11-03T07:30:42.689Z,4048
2017-11-03T07:31:45.066Z,4028
2017-11-03T07:32:47.428Z,3912
2017-11-03T07:33:49.800Z,3808
2017-11-03T07:34:52.177Z,3736
2017-11-03T07:35:54.548Z,3740
2017-11-03T07:36:56.927Z,3804
2017-11-03T07:37:59.303Z,3896
2017-11-03T07:39:01.676Z,4000
2017-11-03T07:40:04.057Z,4044
2017-11-03T07:41:06.428Z,4004
2017-11-03T07:42:08.805Z,3964
2017-11-03T07:43:11.186Z,3964
2017-11-03T07:44:13.545Z,4016
2017-11-03T07:45:15.924Z,4088
2017-11-03T07:46:18.303Z,4128
2017-11-03T07:47:20.675Z,4124
2017-11-03T07:48:23.051Z,4108
2017-11-03T07:49:25.428Z,4060
2017-11-03T07:50:27.793Z,3996
2017-11-03T07:51:30.177Z,3960
2017-11-03T07:52:32.552Z,3988
2017-11-03T07:53:34.931Z,4064
2017-11-03T07:54:37.294Z,4132
2017-11-03T07:55:39.666Z,4148
2017-11-03T07:56:42.040Z,4144
2017-11-03T07:57:44.421Z,4148
2017-11-03T07:58:46.785Z,4120
2017-11-03T07:59:49.156Z,4132
2017-11-03T08:00:51.530Z,4268
2017-11-03T08:01:53.907Z,4412
2017-11-03T08:02:56.281Z,4496
2017-11-03T08:03:58.664Z,4496
2017-11-03T08:05:01.031Z,4484
2017-11-03T08:06:03.417Z,4556
2017-11-03T08:07:05.797Z,4648
2017-11-03T08:08:08.168Z,4676
2017-11-03T08:09:10.549Z,4704
2017-11-03T08:10:12.913Z,4780
2017-11-03T08:11:15.293Z,4844
2017-11-03T08:12:17.670Z,4784
2017-11-03T08:13:20.057Z,4696
2017-11-03T08:14:22.434Z,4640
2017-11-03T08:15:24.795Z,4676
2017-11-03T08:16:27.174Z,4856
2017-11-03T08:17:29.558Z,5120
2017-11-03T08:18:31.930Z,5372
2017-11-03T08:19:34.312Z,5484
2017-11-03T08:20:36.686Z,5504
2017-11-03T08:21:39.076Z,5556
2017-11-03T08:22:41.465Z,5604
2017-11-03T08:23:43.841Z,5556
2017-11-03T08:24:46.214Z,5452
2017-11-03T08:25:48.951Z,5396
2017-11-03T08:26:51.323Z,5400
2017-11-03T08:27:53.705Z,5496
2017-11-03T08:28:56.077Z,5640
2017-11-03T08:29:58.448Z,5732
2017-11-03T08:31:00.831Z,5820
2017-11-03T08:32:03.201Z,5912
2017-11-03T08:33:05.564Z,6128
2017-11-03T08:34:08.303Z,6344
2017-11-03T08:35:10.671Z,6448
2017-11-03T08:36:13.043Z,6376
2017-11-03T08:37:15.427Z,6340
2017-11-03T08:38:17.804Z,6460
2017-11-03T08:39:20.165Z,6668
2017-11-03T08:40:22.543Z,6972
2017-11-03T08:41:24.917Z,7404
2017-11-03T08:42:27.282Z,7728
2017-11-03T08:43:29.662Z,7864
2017-11-03T08:44:32.035Z,8036
2017-11-03T08:45:34.411Z,8272
2017-11-03T08:46:36.811Z,8424
2017-11-03T08:47:39.180Z,8512
2017-11-03T08:48:41.556Z,8488
2017-11-03T08:49:43.930Z,8332
2017-11-03T08:50:46.307Z,8232
2017-11-03T08:51:48.684Z,8300
2017-11-03T08:52:51.061Z,8432
2017-11-03T08:53:53.466Z,8600
2017-11-03T08:54:55.840Z,8840
2017-11-03T08:55:58.562Z,9088
2017-11-03T08:57:00.956Z,9296
2017-11-03T08:58:03.331Z,9192
2017-11-03T08:59:05.728Z,8588
2017-11-03T09:00:08.134Z,7904
2017-11-03T09:01:10.507Z,7528
2017-11-03T09:02:12.877Z,7584
2017-11-03T09:03:15.256Z,8576
2017-11-03T09:04:17.628Z,10312
2017-11-03T09:05:20.016Z,11780
2017-11-03T09:06:22.401Z,12532
2017-11-03T09:07:24.758Z,12976
2017-11-03T09:08:27.143Z,15656
2017-11-03T09:09:29.512Z,23552
2017-11-03T09:10:32.291Z,19296
2017-11-03T09:11:34.663Z,15212
2017-11-03T09:12:37.042Z,55808
2017-11-03T09:13:39.422Z,60736
2017-11-03T09:14:41.795Z,42592
2017-11-03T09:15:44.179Z,61920
2017-11-03T09:16:46.555Z,60416
2017-11-03T09:17:48.929Z,54976
2017-11-03T09:18:51.304Z,37664
2017-11-03T09:19:54.028Z,22624
2017-11-03T09:20:56.397Z,26496
2017-11-03T09:21:58.783Z,19616
2017-11-03T09:23:01.500Z,13804
2017-11-03T09:24:03.881Z,12436
2017-11-03T09:25:06.254Z,13628
2017-11-03T09:26:08.630Z,13592
2017-11-03T09:27:11.014Z,13592
2017-11-03T09:28:13.393Z,13460
2017-11-03T09:29:15.775Z,17336
2017-11-03T09:30:18.165Z,11960
2017-11-03T09:31:20.534Z,12620
2017-11-03T09:32:22.906Z,12352
2017-11-03T09:33:25.288Z,11992
2017-11-03T09:34:27.657Z,10448
2017-11-03T09:35:30.033Z,8260
2017-11-03T09:36:32.403Z,7220
2017-11-03T09:37:34.783Z,8232
2017-11-03T09:38:37.150Z,12860
2017-11-03T09:39:39.532Z,27296
2017-11-03T09:40:41.909Z,34720
2017-11-03T09:41:44.281Z,32448
2017-11-03T09:42:46.658Z,52896
2017-11-03T09:43:49.030Z,45984
2017-11-03T09:44:51.403Z,49760
2017-11-03T09:45:53.789Z,58816
2017-11-03T09:46:56.166Z,46464
2017-11-03T09:47:58.530Z,39968
2017-11-03T09:49:00.914Z,27552
2017-11-03T09:50:03.305Z,7584
2017-11-03T09:51:05.683Z,6792
2017-11-03T09:52:08.066Z,6968
2017-11-03T09:53:10.433Z,7124
2017-11-03T09:54:12.812Z,7040
2017-11-03T09:55:15.202Z,7448
2017-11-03T09:56:17.579Z,7388
2017-11-03T09:57:19.952Z,7496
2017-11-03T09:58:22.336Z,7080
2017-11-03T09:59:24.714Z,7048
2017-11-03T10:00:27.447Z,7036
2017-11-03T10:01:29.838Z,6256
2017-11-03T10:02:32.439Z,6220
2017-11-03T10:03:35.052Z,5968
2017-11-03T10:04:42.985Z,5252
2017-11-03T10:05:45.361Z,4528
2017-11-03T10:06:47.829Z,4120
2017-11-03T10:07:56.797Z,4240
2017-11-03T10:09:09.223Z,4816
2017-11-03T10:10:14.027Z,5412
2017-11-03T10:11:19.274Z,6216
2017-11-03T10:12:27.451Z,6568
2017-11-03T10:13:32.242Z,7096
2017-11-03T10:14:37.851Z,7292
2017-11-03T10:15:42.982Z,8000
2017-11-03T10:16:47.931Z,11032
2017-11-03T10:17:53.548Z,14612
2017-11-03T10:19:19.759Z,17644
2017-11-03T10:20:39.318Z,21568
2017-11-03T10:21:49.585Z,25888
2017-11-03T10:23:05.929Z,21920
2017-11-03T10:24:20.147Z,31648
2017-11-03T10:25:30.170Z,71072
2017-11-03T10:26:38.777Z,31520
2017-11-03T10:27:50.077Z,69632
2017-11-03T10:29:05.683Z,34176
2017-11-03T10:30:15.047Z,24704
2017-11-03T10:31:39.063Z,24064
2017-11-03T10:32:55.024Z,20064
2017-11-03T10:34:23.406Z,25280
2017-11-03T10:35:39.239Z,34816
2017-11-03T10:36:50.817Z,22048
2017-11-03T10:38:01.751Z,16912
2017-11-03T10:39:07.961Z,21728
2017-11-03T10:40:10.338Z,24608
2017-11-03T10:41:12.719Z,24096
2017-11-03T10:42:15.098Z,27360
2017-11-03T10:43:17.469Z,27392
2017-11-03T10:44:19.853Z,30688
2017-11-03T10:45:22.230Z,28512
2017-11-03T10:46:24.611Z,65568
2017-11-03T10:47:27.325Z,40032
2017-11-03T10:48:29.712Z,34560
2017-11-03T10:49:32.082Z,21408
2017-11-03T10:50:34.457Z,22688
2017-11-03T10:51:36.832Z,47072
2017-11-03T10:52:39.209Z,53088
2017-11-03T10:53:41.594Z,76608
2017-11-03T10:54:43.967Z,74528
2017-11-03T10:55:46.689Z,45056
2017-11-03T10:56:49.071Z,33536
2017-11-03T10:57:51.456Z,26976
2017-11-03T10:58:53.827Z,36224
2017-11-03T10:59:56.202Z,25408
2017-11-03T11:00:58.585Z,33216
2017-11-03T11:02:01.305Z,30560
2017-11-03T11:03:03.690Z,39200
2017-11-03T11:04:06.061Z,42304
2017-11-03T11:05:08.445Z,38336
2017-11-03T11:06:10.838Z,34496
2017-11-03T11:07:13.217Z,42368
2017-11-03T11:08:15.595Z,81536
2017-11-03T11:09:17.974Z,39904
2017-11-03T11:10:20.356Z,44384
2017-11-03T11:11:22.727Z,28704
2017-11-03T11:12:25.102Z,25088
2017-11-03T11:13:27.493Z,24352
2017-11-03T11:14:29.873Z,31776
2017-11-03T11:15:32.242Z,34496
2017-11-03T11:16:34.622Z,39552
2017-11-03T11:17:37.010Z,29824
2017-11-03T11:18:39.392Z,72128
2017-11-03T11:19:41.778Z,21056
2017-11-03T11:20:44.147Z,22048
2017-11-03T11:21:46.524Z,24192
2017-11-03T11:22:48.922Z,26048
2017-11-03T11:23:51.308Z,20352
2017-11-03T11:24:54.028Z,14524
2017-11-03T11:25:56.407Z,18288
2017-11-03T11:26:59.145Z,17232
2017-11-03T11:28:01.525Z,20832
2017-11-03T11:29:03.916Z,14752
2017-11-03T11:30:06.276Z,14496
2017-11-03T11:31:09.009Z,17108
2017-11-03T11:32:11.386Z,12228
2017-11-03T11:33:13.762Z,10720
2017-11-03T11:34:16.154Z,9632
2017-11-03T11:35:18.528Z,8000
2017-11-03T11:36:20.908Z,6996
2017-11-03T11:37:23.295Z,6920
2017-11-03T11:38:26.025Z,8400
2017-11-03T11:39:28.759Z,8548
2017-11-03T11:40:31.132Z,7932
2017-11-03T11:41:33.515Z,8448
2017-11-03T11:42:35.895Z,7732
2017-11-03T11:43:38.270Z,8300
2017-11-03T11:44:40.654Z,9652
2017-11-03T11:45:43.035Z,8128
2017-11-03T11:46:45.406Z,7528
2017-11-03T11:47:47.793Z,7804
2017-11-03T11:48:50.165Z,10660
2017-11-03T11:49:52.549Z,7816
2017-11-03T11:50:54.921Z,8656
2017-11-03T11:51:57.300Z,10528
2017-11-03T11:52:59.670Z,8984
2017-11-03T11:54:02.055Z,8932
2017-11-03T11:55:04.768Z,7140
2017-11-03T11:56:07.153Z,7708
2017-11-03T11:57:09.540Z,7564
2017-11-03T11:58:11.905Z,7668
2017-11-03T11:59:14.294Z,8696
2017-11-03T12:00:16.666Z,10132
2017-11-03T12:01:19.040Z,8844
2017-11-03T12:02:21.763Z,8100
2017-11-03T12:03:24.138Z,8140
2017-11-03T12:04:26.507Z,7256
2017-11-03T12:05:28.896Z,7216
2017-11-03T12:06:31.266Z,6696
2017-11-03T12:07:33.635Z,5880
2017-11-03T12:08:36.030Z,6464
2017-11-03T12:09:38.391Z,6968
2017-11-03T12:10:40.760Z,6328
2017-11-03T12:11:43.140Z,6452
2017-11-03T12:12:45.509Z,6380
2017-11-03T12:13:48.228Z,6612
2017-11-03T12:14:50.621Z,5952
2017-11-03T12:15:52.987Z,5928
2017-11-03T12:16:55.364Z,6508
2017-11-03T12:17:58.081Z,6364
2017-11-03T12:19:00.455Z,5652
2017-11-03T12:20:03.176Z,5728
2017-11-03T12:21:05.562Z,6776
2017-11-03T12:22:07.924Z,6780
2017-11-03T12:23:10.296Z,6908
2017-11-03T12:24:13.034Z,8796
2017-11-03T12:25:15.460Z,7104
2017-11-03T12:26:17.836Z,5932
2017-11-03T12:27:20.564Z,6392
2017-11-03T12:28:22.934Z,5408
2017-11-03T12:29:25.314Z,4160
2017-11-03T12:30:27.688Z,4012
2017-11-03T12:31:30.061Z,4124
2017-11-03T12:32:32.427Z,4100
2017-11-03T12:33:34.809Z,3948
2017-11-03T12:34:37.176Z,4620
2017-11-03T12:35:39.560Z,5216
2017-11-03T12:36:41.918Z,6480
2017-11-03T12:37:44.292Z,5024
2017-11-03T12:38:46.677Z,5996
2017-11-03T12:39:49.047Z,6312
2017-11-03T12:40:51.426Z,5184
2017-11-03T12:41:53.795Z,5560
2017-11-03T12:42:56.513Z,5156
2017-11-03T12:43:58.894Z,4268
2017-11-03T12:45:01.264Z,4320
2017-11-03T12:46:03.651Z,4364
2017-11-03T12:47:06.024Z,4196
2017-11-03T12:48:08.388Z,4388
2017-11-03T12:49:10.777Z,3968
2017-11-03T12:50:13.149Z,3988
2017-11-03T12:51:15.527Z,4256
2017-11-03T12:52:17.902Z,3856
2017-11-03T12:53:20.280Z,4456
2017-11-03T12:54:22.657Z,4872
2017-11-03T12:55:25.037Z,4628
2017-11-03T12:56:27.404Z,4728
2017-11-03T12:57:29.780Z,5100
2017-11-03T12:58:32.152Z,4052
2017-11-03T12:59:34.528Z,3472
2017-11-03T13:00:36.920Z,3168
2017-11-03T13:01:39.283Z,2884
2017-11-03T13:02:42.313Z,3000
2017-11-03T13:03:45.203Z,3392
2017-11-03T13:04:47.780Z,2640
2017-11-03T13:05:50.519Z,2008
2017-11-03T13:06:56.509Z,1656
2017-11-03T13:07:59.323Z,1520
2017-11-03T13:09:01.964Z,1516
2017-11-03T13:10:04.558Z,1756
2017-11-03T13:11:07.203Z,2036
2017-11-03T13:12:10.065Z,2088
2017-11-03T13:13:12.563Z,2112
2017-11-03T13:14:15.113Z,2176
2017-11-03T13:15:17.702Z,2068
2017-11-03T13:16:20.159Z,1872
2017-11-03T13:17:22.530Z,1876
2017-11-03T13:18:24.946Z,2060
2017-11-03T13:19:27.347Z,2076
2017-11-03T13:20:29.783Z,2244
2017-11-03T13:21:32.153Z,2468
2017-11-03T13:22:34.913Z,3108
2017-11-03T13:23:37.549Z,3696
2017-11-03T13:24:39.926Z,4904
2017-11-03T13:25:42.877Z,5536
2017-11-03T13:26:45.230Z,7348
2017-11-03T13:27:48.103Z,10212
2017-11-03T13:28:50.490Z,10344
2017-11-03T13:29:52.864Z,10032
2017-11-03T13:30:55.244Z,7824
2017-11-03T13:31:57.607Z,8760
2017-11-03T13:33:00.354Z,8460
2017-11-03T13:34:02.742Z,10016
2017-11-03T13:35:05.123Z,10708
2017-11-03T13:36:07.486Z,9004
2017-11-03T13:37:09.864Z,7840
2017-11-03T13:38:12.254Z,8424
2017-11-03T13:39:14.662Z,10764
2017-11-03T13:40:17.145Z,10236
2017-11-03T13:41:20.924Z,9124
2017-11-03T13:42:24.029Z,8732
2017-11-03T13:43:26.936Z,7692
2017-11-03T13:44:29.305Z,8228
2017-11-03T13:45:32.034Z,9536
2017-11-03T13:46:34.603Z,10304
2017-11-03T13:47:37.380Z,8476
2017-11-03T13:48:40.130Z,8524
2017-11-03T13:49:42.503Z,8188
2017-11-03T13:50:45.000Z,8424
2017-11-03T13:51:47.375Z,10464
2017-11-03T13:52:49.755Z,10652
2017-11-03T13:53:52.489Z,11612
2017-11-03T13:54:55.240Z,10992
2017-11-03T13:55:57.614Z,11176
2017-11-03T13:56:59.992Z,11804
2017-11-03T13:58:02.710Z,11396
2017-11-03T13:59:05.077Z,9648
2017-11-03T14:00:07.470Z,10232
2017-11-03T14:01:10.048Z,8212
2017-11-03T14:02:12.431Z,7920
2017-11-03T14:03:14.813Z,6380
2017-11-03T14:04:17.202Z,5752
2017-11-03T14:05:19.558Z,6544
2017-11-03T14:06:21.940Z,7920
2017-11-03T14:07:24.305Z,6556
2017-11-03T14:08:27.029Z,4128
2017-11-03T14:09:29.409Z,3948
2017-11-03T14:10:32.262Z,4112
2017-11-03T14:11:40.178Z,4048
2017-11-03T14:12:42.585Z,4612
2017-11-03T14:13:44.985Z,5116
2017-11-03T14:14:47.401Z,5756
2017-11-03T14:15:50.121Z,5864
2017-11-03T14:16:52.501Z,6368
2017-11-03T14:17:54.882Z,6028
2017-11-03T14:18:57.238Z,5692
2017-11-03T14:19:59.969Z,5848
2017-11-03T14:21:02.346Z,6580
2017-11-03T14:22:04.721Z,7484
2017-11-03T14:23:07.098Z,9632
2017-11-03T14:24:09.478Z,11328
2017-11-03T14:25:11.849Z,10684
2017-11-03T14:26:14.582Z,9432
2017-11-03T14:27:16.957Z,6200
2017-11-03T14:28:19.325Z,5132